createdAt,value
2018-04-02T00:02:18.652Z,7.70
2018-04-02T00:04:46.958Z,7.20
2018-04-02T00:07:14.329Z,7.10
2018-04-02T00:09:41.704Z,7.00
2018-04-02T00:12:09.113Z,7.00
2018-04-02T00:14:38.491Z,7.00
2018-04-02T00:17:05.856Z,7.10
2018-04-02T00:19:33.389Z,7.10
2018-04-02T00:22:00.801Z,7.20
2018-04-02T00:24:29.957Z,7.00
2018-04-02T00:26:58.171Z,6.90
2018-04-02T00:29:29.883Z,6.80
2018-04-02T00:32:01.927Z,6.90
2018-04-02T00:34:29.270Z,6.80
2018-04-02T00:36:56.666Z,6.80
2018-04-02T00:39:24.068Z,6.70
2018-04-02T00:41:53.223Z,6.70
2018-04-02T00:44:22.569Z,6.80
2018-04-02T00:46:49.980Z,6.80
2018-04-02T00:49:18.320Z,6.80
2018-04-02T00:51:45.673Z,6.80
2018-04-02T00:54:13.035Z,6.70
2018-04-02T00:56:41.583Z,6.70
2018-04-02T00:59:10.877Z,6.70
2018-04-02T01:01:39.030Z,6.70
2018-04-02T01:04:08.193Z,6.80
2018-04-02T01:06:37.407Z,6.80
2018-04-02T01:09:06.548Z,7.00
2018-04-02T01:11:34.866Z,7.20
2018-04-02T01:14:02.327Z,7.60
2018-04-02T01:16:29.741Z,7.60
2018-04-02T01:18:57.787Z,7.60
2018-04-02T01:21:25.887Z,7.50
2018-04-02T01:23:53.252Z,7.40
2018-04-02T01:26:21.491Z,7.30
2018-04-02T01:28:48.952Z,7.30
2018-04-02T01:31:17.157Z,7.20
2018-04-02T01:33:44.588Z,7.20
2018-04-02T01:36:11.976Z,7.50
2018-04-02T01:38:42.355Z,7.50
2018-04-02T01:41:10.507Z,7.50
2018-04-02T01:43:39.587Z,7.40
2018-04-02T01:46:08.844Z,8.00
2018-04-02T01:48:37.026Z,8.60
2018-04-02T01:51:04.396Z,9.20
2018-04-02T01:53:31.743Z,9.90
2018-04-02T01:56:00.884Z,10.30
2018-04-02T01:58:31.037Z,10.70
2018-04-02T02:01:01.253Z,11.20
2018-04-02T02:03:30.580Z,11.20
2018-04-02T02:05:59.872Z,10.70
2018-04-02T02:08:27.248Z,9.90
2018-04-02T02:10:57.076Z,10.10
2018-04-02T02:13:24.408Z,10.70
2018-04-02T02:15:52.781Z,11.30
2018-04-02T02:18:20.168Z,12.10
2018-04-02T02:20:47.563Z,12.80
2018-04-02T02:23:15.743Z,13.00
2018-04-02T02:25:43.104Z,12.90
2018-04-02T02:28:11.224Z,11.80
2018-04-02T02:30:38.762Z,10.80
2018-04-02T02:33:06.113Z,10.70
2018-04-02T02:35:34.143Z,11.30
2018-04-02T02:40:29.909Z,12.40
2018-04-02T02:42:59.355Z,13.10
2018-04-02T02:47:54.969Z,13.00
2018-04-02T02:50:22.306Z,12.90
2018-04-02T02:52:49.708Z,12.10
2018-04-02T02:57:46.481Z,10.80
2018-04-02T03:02:43.012Z,11.90
2018-04-02T03:05:10.446Z,10.90
2018-04-02T03:07:37.873Z,9.40
2018-04-02T03:12:34.175Z,7.50
2018-04-02T03:17:29.832Z,7.00
2018-04-02T03:22:25.536Z,8.00
2018-04-02T03:24:53.678Z,7.80
2018-04-02T03:27:21.045Z,8.50
2018-04-02T03:29:48.415Z,8.90
2018-04-02T03:34:44.277Z,8.90
2018-04-02T03:37:11.635Z,9.30
2018-04-02T03:44:35.869Z,8.50
2018-04-02T03:47:03.251Z,9.50
2018-04-02T03:51:59.075Z,11.20
2018-04-02T03:54:26.455Z,11.80
2018-04-02T03:56:53.816Z,11.70
2018-04-02T03:59:21.201Z,12.00
2018-04-02T04:01:48.588Z,12.20
2018-04-02T04:09:12.708Z,13.60
2018-04-02T04:11:40.172Z,13.30
2018-04-02T04:16:36.686Z,13.90
2018-04-02T04:19:04.808Z,14.00
2018-04-02T04:21:32.444Z,14.30
2018-04-02T04:23:59.789Z,14.50
2018-04-02T04:26:27.252Z,14.50
2018-04-02T04:28:54.675Z,13.30
2018-04-02T04:31:22.127Z,11.40
2018-04-02T04:33:50.285Z,10.60
2018-04-02T04:38:46.821Z,8.40
2018-04-02T04:43:43.261Z,7.60
2018-04-02T04:46:10.648Z,7.30
2018-04-02T04:48:38.738Z,7.10
2018-04-02T04:51:06.167Z,7.00
2018-04-02T04:53:34.295Z,6.90
2018-04-02T04:56:02.584Z,6.90
2018-04-02T04:58:29.909Z,6.90
2018-04-02T05:00:57.279Z,7.00
2018-04-02T05:05:52.970Z,6.80
2018-04-02T05:08:20.338Z,7.00
2018-04-02T05:10:48.500Z,7.10
2018-04-02T05:13:15.864Z,6.90
2018-04-02T05:15:43.224Z,7.80
2018-04-02T05:18:10.605Z,9.10
2018-04-02T05:20:37.963Z,9.20
2018-04-02T05:25:33.173Z,9.80
2018-04-02T05:28:00.541Z,9.20
2018-04-02T05:30:27.907Z,7.90
2018-04-02T05:35:23.555Z,6.70
2018-04-02T05:37:51.700Z,6.30
2018-04-02T05:42:47.274Z,5.90
2018-04-02T05:47:42.946Z,5.60
2018-04-02T05:50:10.415Z,5.50
2018-04-02T05:52:37.747Z,5.60
2018-04-02T05:55:05.156Z,5.50
2018-04-02T05:57:33.228Z,5.40
2018-04-02T06:00:01.346Z,5.40
2018-04-02T06:02:28.754Z,5.50
2018-04-02T06:09:52.745Z,6.00
2018-04-02T06:12:20.272Z,6.10
2018-04-02T06:14:47.628Z,6.20
2018-04-02T06:17:15.752Z,6.00
2018-04-02T06:24:40.420Z,6.80
2018-04-02T06:27:07.763Z,6.90
2018-04-02T06:29:35.179Z,6.70
2018-04-02T06:34:31.499Z,6.80
2018-04-02T06:36:58.989Z,6.90
2018-04-02T06:39:27.033Z,6.90
2018-04-02T06:41:54.419Z,6.90
2018-04-02T06:44:22.592Z,7.00
2018-04-02T06:51:47.212Z,7.60
2018-04-02T06:56:43.586Z,8.70
2018-04-02T06:59:10.980Z,9.30
2018-04-02T07:01:38.309Z,10.00
2018-04-02T07:06:34.064Z,11.20
2018-04-02T07:09:02.152Z,11.40
2018-04-02T07:16:26.955Z,11.80
2018-04-02T07:18:54.401Z,12.70
2018-04-02T07:21:22.577Z,12.60
2018-04-02T07:23:50.032Z,12.80
2018-04-02T07:31:13.964Z,12.80
2018-04-02T07:33:42.161Z,12.50
2018-04-02T07:36:10.336Z,13.00
2018-04-02T07:43:35.370Z,12.40
2018-04-02T07:48:31.162Z,12.90
2018-04-02T07:55:55.177Z,12.80
2018-04-02T08:00:50.826Z,13.40
2018-04-02T08:03:19.002Z,13.60
2018-04-02T08:05:47.092Z,14.30
2018-04-02T08:08:14.752Z,14.70
2018-04-02T08:13:11.138Z,15.50
2018-04-02T08:15:38.533Z,15.30
2018-04-02T08:18:05.905Z,14.40
2018-04-02T08:20:33.241Z,14.80
2018-04-02T08:23:00.603Z,15.40
2018-04-02T08:25:27.935Z,15.90
2018-04-02T08:27:55.272Z,16.20
2018-04-02T08:32:51.908Z,17.30
2018-04-02T08:35:19.347Z,17.90
2018-04-02T08:37:46.731Z,18.60
2018-04-02T08:42:42.477Z,18.20
2018-04-02T08:45:10.647Z,17.70
2018-04-02T08:47:37.984Z,18.30
2018-04-02T08:50:05.695Z,18.60
2018-04-02T08:55:02.120Z,18.90
2018-04-02T08:59:57.942Z,19.80
2018-04-02T09:02:25.304Z,18.90
2018-04-02T09:07:21.278Z,18.30
2018-04-02T09:09:49.372Z,18.90
2018-04-02T09:12:16.761Z,19.10
2018-04-02T09:14:44.244Z,19.20
2018-04-02T09:19:39.944Z,19.10
2018-04-02T09:22:08.104Z,18.40
2018-04-02T09:24:35.476Z,18.70
2018-04-02T09:27:02.812Z,18.90
2018-04-02T09:29:30.184Z,18.60
2018-04-02T09:31:57.613Z,19.40
2018-04-02T09:34:24.973Z,19.30
2018-04-02T09:36:53.334Z,20.20
2018-04-02T09:39:20.704Z,20.10
2018-04-02T09:41:48.845Z,20.40
2018-04-02T09:46:45.248Z,21.60
2018-04-02T09:49:12.641Z,22.40
2018-04-02T09:54:08.321Z,24.10
2018-04-02T09:56:36.374Z,24.40
2018-04-02T10:01:32.833Z,23.50
2018-04-02T10:04:01.057Z,23.50
2018-04-02T10:06:29.228Z,23.60
2018-04-02T10:13:53.904Z,23.70
2018-04-02T10:16:21.300Z,25.10
2018-04-02T10:18:49.400Z,25.00
2018-04-02T10:21:17.552Z,24.40
2018-04-02T10:23:45.934Z,23.10
2018-04-02T10:26:13.293Z,21.10
2018-04-02T10:31:09.072Z,20.50
2018-04-02T10:33:36.493Z,20.20
2018-04-02T10:38:32.271Z,19.70
2018-04-02T10:40:59.651Z,20.80
2018-04-02T10:43:27.800Z,21.30
2018-04-02T10:48:24.268Z,21.90
2018-04-02T10:50:51.692Z,21.60
2018-04-02T10:53:20.109Z,20.30
2018-04-02T10:55:48.180Z,20.10
2018-04-02T10:58:15.522Z,20.80
2018-04-02T11:00:42.917Z,21.00
2018-04-02T11:03:10.301Z,20.60
2018-04-02T11:05:38.395Z,19.70
2018-04-02T11:08:06.473Z,18.40
2018-04-02T11:10:33.901Z,17.70
2018-04-02T11:13:01.257Z,18.40
2018-04-02T11:15:28.596Z,20.70
2018-04-02T11:17:56.002Z,23.00
2018-04-02T11:22:52.564Z,25.80
2018-04-02T11:25:19.948Z,25.90
2018-04-02T11:27:48.084Z,25.70
2018-04-02T11:30:16.253Z,25.30
2018-04-02T11:32:43.645Z,24.90
2018-04-02T11:35:11.758Z,25.00
2018-04-02T11:37:39.132Z,24.30
2018-04-02T11:40:06.537Z,24.10
2018-04-02T11:42:34.692Z,24.40
2018-04-02T11:45:02.082Z,24.70
2018-04-02T11:49:58.736Z,26.00
2018-04-02T11:52:26.088Z,25.50
2018-04-02T11:54:53.476Z,26.20
2018-04-02T11:57:21.569Z,26.70
2018-04-02T12:02:18.111Z,27.30
2018-04-02T12:09:43.009Z,26.80
2018-04-02T12:12:10.376Z,25.50
2018-04-02T12:14:38.510Z,25.30
2018-04-02T12:17:06.699Z,24.60
2018-04-02T12:19:34.056Z,22.20
2018-04-02T12:24:29.735Z,22.10
2018-04-02T12:26:57.877Z,22.80
2018-04-02T12:29:25.972Z,22.90
2018-04-02T12:36:50.708Z,23.10
2018-04-02T12:41:46.363Z,23.10
2018-04-02T12:44:14.024Z,23.30
2018-04-02T12:46:42.140Z,23.00
2018-04-02T12:49:09.553Z,24.00
2018-04-02T12:54:05.325Z,24.80
2018-04-02T12:59:01.232Z,24.80
2018-04-02T13:01:29.342Z,25.40
2018-04-02T13:06:25.007Z,27.30
2018-04-02T13:11:20.691Z,25.90
2018-04-02T13:13:48.039Z,26.50
2018-04-02T13:16:15.445Z,26.20
2018-04-02T13:18:43.576Z,25.30
2018-04-02T13:21:11.045Z,24.60
2018-04-02T13:23:38.436Z,24.80
2018-04-02T13:26:06.873Z,25.30
2018-04-02T13:31:02.760Z,23.20
2018-04-02T13:35:59.225Z,24.10
2018-04-02T13:43:23.601Z,26.30
2018-04-02T13:50:49.005Z,26.90
2018-04-02T13:55:44.841Z,26.20
2018-04-02T13:58:12.276Z,26.60
2018-04-02T14:00:39.636Z,25.50
2018-04-02T14:03:07.756Z,23.70
2018-04-02T14:08:04.396Z,22.60
2018-04-02T14:13:00.226Z,21.20
2018-04-02T14:20:24.380Z,21.30
2018-04-02T14:22:52.490Z,22.20
2018-04-02T14:25:19.869Z,23.50
2018-04-02T14:30:15.536Z,24.60
2018-04-02T14:32:42.894Z,24.30
2018-04-02T14:35:11.049Z,24.10
2018-04-02T14:37:38.465Z,23.30
2018-04-02T14:40:05.790Z,23.80
2018-04-02T14:42:33.199Z,24.70
2018-04-02T14:45:00.717Z,25.30
2018-04-02T14:49:57.108Z,24.60
2018-04-02T14:52:25.713Z,25.30
2018-04-02T14:57:22.153Z,25.50
2018-04-02T15:04:46.860Z,25.20
2018-04-02T15:07:14.229Z,25.40
2018-04-02T15:09:42.706Z,25.80
2018-04-02T15:12:10.877Z,25.80
2018-04-02T15:14:39.051Z,25.20
2018-04-02T15:17:07.324Z,24.70
2018-04-02T15:22:09.649Z,23.00
2018-04-02T15:24:39.703Z,22.20
2018-04-02T15:27:16.577Z,22.20
2018-04-02T15:29:44.708Z,22.70
2018-04-02T15:32:12.132Z,23.00
2018-04-02T15:37:12.548Z,21.40
2018-04-02T15:39:41.648Z,20.90
2018-04-02T15:44:38.165Z,21.10
2018-04-02T15:49:36.687Z,21.70
2018-04-02T15:52:05.565Z,21.40
2018-04-02T15:54:37.637Z,21.00
2018-04-02T15:59:46.670Z,20.00
2018-04-02T16:02:15.597Z,19.60
2018-04-02T16:04:43.723Z,19.30
2018-04-02T16:07:13.061Z,19.30
2018-04-02T16:09:40.427Z,19.40
2018-04-02T16:14:39.070Z,19.40
2018-04-02T16:19:43.109Z,19.30
2018-04-02T16:22:11.477Z,19.20
2018-04-02T16:24:40.056Z,19.10
2018-04-02T16:27:07.419Z,19.30
2018-04-02T16:29:34.918Z,19.20
2018-04-02T16:32:03.277Z,19.60
2018-04-02T16:34:30.739Z,19.60
2018-04-02T16:36:58.283Z,19.40
2018-04-02T16:39:28.472Z,19.20
2018-04-02T16:41:59.473Z,19.00
2018-04-02T16:44:26.971Z,19.10
2018-04-02T16:46:54.345Z,19.00
2018-04-02T16:49:21.746Z,18.70
2018-04-02T16:51:49.996Z,18.70
2018-04-02T16:54:21.050Z,18.90
2018-04-02T16:56:48.488Z,19.30
2018-04-02T16:59:16.973Z,19.80
2018-04-02T17:01:44.572Z,20.30
2018-04-02T17:04:13.665Z,20.80
2018-04-02T17:06:45.405Z,20.80
2018-04-02T17:09:13.543Z,20.90
2018-04-02T17:11:41.549Z,21.00
2018-04-02T17:14:09.117Z,20.80
2018-04-02T17:16:38.978Z,20.40
2018-04-02T17:19:06.645Z,19.70
2018-04-02T17:21:34.018Z,19.40
2018-04-02T17:24:01.378Z,19.20
2018-04-02T17:26:28.871Z,18.80
2018-04-02T17:28:56.306Z,18.50
2018-04-02T17:31:24.769Z,18.40
2018-04-02T17:33:53.117Z,18.40
2018-04-02T17:36:20.507Z,18.30
2018-04-02T17:38:51.809Z,18.50
2018-04-02T17:41:19.194Z,18.30
2018-04-02T17:43:48.513Z,18.70
2018-04-02T17:46:15.907Z,19.30
2018-04-02T17:48:44.082Z,19.10
2018-04-02T17:51:14.408Z,19.00
2018-04-02T17:53:47.717Z,18.70
2018-04-02T17:56:17.181Z,18.50
2018-04-02T17:58:44.563Z,18.40
2018-04-02T18:01:11.968Z,18.50
2018-04-02T18:03:39.425Z,18.20
2018-04-02T18:06:06.950Z,18.00
2018-04-02T18:08:38.257Z,18.00
2018-04-02T18:11:09.585Z,18.60
2018-04-02T18:13:37.046Z,18.20
2018-04-02T18:16:04.606Z,18.00
2018-04-02T18:18:32.909Z,17.70
2018-04-02T18:21:01.128Z,17.40
2018-04-02T18:23:29.445Z,17.60
2018-04-02T18:25:56.974Z,17.50
2018-04-02T18:28:24.402Z,17.40
2018-04-02T18:30:51.769Z,17.30
2018-04-02T18:33:19.149Z,17.20
2018-04-02T18:35:46.678Z,17.20
2018-04-02T18:38:14.126Z,16.90
2018-04-02T18:40:42.365Z,16.70
2018-04-02T18:43:12.401Z,16.50
2018-04-02T18:45:39.786Z,16.50
2018-04-02T18:48:08.367Z,16.50
2018-04-02T18:50:35.780Z,16.70
2018-04-02T18:53:08.261Z,16.40
2018-04-02T18:55:36.994Z,16.40
2018-04-02T18:58:05.225Z,16.40
2018-04-02T19:00:34.451Z,16.20
2018-04-02T19:03:05.771Z,16.10
2018-04-02T19:05:36.913Z,16.00
2018-04-02T19:08:09.283Z,16.10
2018-04-02T19:10:37.452Z,16.60
2018-04-02T19:13:09.406Z,16.50
2018-04-02T19:15:38.591Z,16.10
2018-04-02T19:18:07.741Z,16.20
2018-04-02T19:20:35.880Z,16.00
2018-04-02T19:23:07.812Z,16.00
2018-04-02T19:25:37.254Z,16.70
2018-04-02T19:28:10.275Z,16.90
2018-04-02T19:30:38.632Z,16.80
2018-04-02T19:33:06.037Z,16.60
2018-04-02T19:35:33.563Z,16.50
2018-04-02T19:38:02.990Z,16.10
2018-04-02T19:40:30.541Z,15.80
2018-04-02T19:42:57.957Z,15.80
2018-04-02T19:45:25.350Z,16.10
2018-04-02T19:47:56.316Z,16.80
2018-04-02T19:50:23.695Z,16.40
2018-04-02T19:52:58.808Z,16.30
2018-04-02T19:55:26.964Z,16.10
2018-04-02T19:57:54.696Z,15.80
2018-04-02T20:00:22.096Z,15.70
2018-04-02T20:02:50.277Z,15.70
2018-04-02T20:05:17.685Z,15.70
2018-04-02T20:07:46.039Z,16.10
2018-04-02T20:10:15.432Z,16.30
2018-04-02T20:12:43.520Z,16.20
2018-04-02T20:15:11.002Z,16.20
2018-04-02T20:17:38.395Z,16.10
2018-04-02T20:20:08.601Z,16.00
2018-04-02T20:22:36.806Z,15.90
2018-04-02T20:25:07.735Z,16.00
2018-04-02T20:27:36.133Z,16.20
2018-04-02T20:30:03.567Z,16.10
2018-04-02T20:32:31.789Z,16.00
2018-04-02T20:35:01.992Z,16.20
2018-04-02T20:37:30.507Z,16.70
2018-04-02T20:40:00.734Z,17.60
2018-04-02T20:42:28.148Z,17.40
2018-04-02T20:44:58.310Z,17.10
2018-04-02T20:47:25.708Z,17.00
2018-04-02T20:49:53.849Z,17.10
2018-04-02T20:52:21.540Z,16.70
2018-04-02T20:54:53.314Z,16.70
2018-04-02T20:57:24.397Z,16.60
2018-04-02T20:59:56.850Z,16.50
2018-04-02T21:02:30.731Z,16.20
2018-04-02T21:04:58.823Z,15.70
2018-04-02T21:07:26.232Z,15.70
2018-04-02T21:09:54.397Z,15.50
2018-04-02T21:12:21.903Z,15.40
2018-04-02T21:14:49.412Z,15.40
2018-04-02T21:17:18.621Z,15.30
2018-04-02T21:19:46.792Z,15.20
2018-04-02T21:22:14.198Z,15.10
2018-04-02T21:24:41.572Z,15.10
2018-04-02T21:27:09.983Z,15.10
2018-04-02T21:29:39.146Z,15.00
2018-04-02T21:32:06.523Z,14.90
2018-04-02T21:34:33.941Z,14.80
2018-04-02T21:37:01.357Z,14.80
2018-04-02T21:39:29.524Z,14.70
2018-04-02T21:41:57.733Z,14.60
2018-04-02T21:44:25.134Z,14.60
2018-04-02T21:46:52.520Z,14.70
2018-04-02T21:49:21.583Z,14.60
2018-04-02T21:51:49.096Z,14.70
2018-04-02T21:54:16.515Z,14.90
2018-04-02T21:56:43.952Z,15.40
2018-04-02T21:59:11.339Z,15.30
2018-04-02T22:01:42.433Z,15.10
2018-04-02T22:04:11.543Z,15.00
2018-04-02T22:06:52.037Z,14.90
2018-04-02T22:09:21.293Z,14.80
2018-04-02T22:11:48.895Z,14.60
2018-04-02T22:14:17.072Z,14.50
2018-04-02T22:19:12.799Z,14.30
2018-04-02T22:24:09.227Z,14.40
2018-04-02T22:29:04.879Z,14.40
2018-04-02T22:34:00.576Z,14.40
2018-04-02T22:38:56.206Z,14.40
2018-04-02T22:41:24.374Z,14.80
2018-04-02T22:43:51.726Z,14.60
2018-04-02T22:46:19.332Z,14.60
2018-04-02T22:51:15.714Z,14.90
2018-04-02T22:53:43.072Z,14.70
2018-04-02T22:58:39.449Z,15.10
2018-04-02T23:01:06.836Z,15.20
2018-04-02T23:03:34.960Z,14.90
2018-04-02T23:06:02.342Z,14.70
2018-04-02T23:13:27.033Z,14.60
2018-04-02T23:15:54.476Z,14.50
2018-04-02T23:18:21.860Z,14.50
2018-04-02T23:20:49.928Z,14.40
2018-04-02T23:23:17.447Z,14.40
2018-04-02T23:25:44.909Z,14.30
2018-04-02T23:30:40.580Z,14.30
2018-04-02T23:35:36.207Z,14.20
2018-04-02T23:38:03.924Z,14.20
2018-04-02T23:40:31.210Z,14.30
2018-04-02T23:47:55.888Z,14.10
2018-04-02T23:50:23.292Z,14.10
2018-04-02T23:52:50.712Z,14.10
2018-04-02T23:55:18.808Z,14.00
